Time;durP1;ratioP1;P1;durP2;ratioP2;P2;SDS_P1;SDS_P2;PMS_P1;PMS_P2;Temp;Humidity;BMP_temperature;BMP_pressure;BME280_temperature;BME280_humidity;BME280_pressure;Samples;Min_cycle;Max_cycle;Signal;HPM_P1;HPM_P2
2023/10/05 00:01:56;;;;;;;7.00;2.50;;;16.40;74.40;;;;;;5029868;28;20447;-73
2023/10/05 00:04:24;;;;;;;8.68;2.70;;;16.40;74.50;;;;;;5027896;28;20022;-73
2023/10/05 00:06:53;;;;;;;7.10;2.25;;;16.40;74.50;;;;;;5027456;28;20084;-73
2023/10/05 00:09:20;;;;;;;8.15;2.35;;;16.40;74.50;;;;;;5028445;28;20068;-74
2023/10/05 00:11:47;;;;;;;10.10;2.40;;;16.40;74.60;;;;;;5024947;28;20381;-73
2023/10/05 00:14:13;;;;;;;8.43;2.42;;;16.40;74.70;;;;;;5030375;28;20359;-73
2023/10/05 00:16:44;;;;;;;6.03;2.00;;;16.40;74.60;;;;;;5040031;28;20039;-73
2023/10/05 00:19:15;;;;;;;7.90;2.55;;;16.40;74.70;;;;;;5029296;28;20025;-73
2023/10/05 00:21:50;;;;;;;;;;;16.40;74.70;;;;;;5029898;28;20033;-73
2023/10/05 00:24:23;;;;;;;7.00;2.35;;;16.40;74.70;;;;;;5033143;28;20342;-73
2023/10/05 00:26:49;;;;;;;8.77;2.78;;;16.40;74.70;;;;;;5030051;28;20080;-73
2023/10/05 00:31:42;;;;;;;7.45;2.45;;;16.40;74.70;;;;;;5027684;28;20056;-73
2023/10/05 00:34:29;;;;;;;9.27;2.53;;;16.50;74.80;;;;;;5029393;28;20371;-73
2023/10/05 00:36:59;;;;;;;6.63;2.10;;;16.50;74.90;;;;;;5029173;28;20055;-73
2023/10/05 00:39:26;;;;;;;7.55;2.10;;;16.50;75.00;;;;;;5043434;28;20018;-73
2023/10/05 00:44:24;;;;;;;8.38;2.65;;;16.50;75.20;;;;;;5029774;28;20447;-73
2023/10/05 00:46:50;;;;;;;6.70;2.13;;;16.50;75.30;;;;;;5030204;28;20033;-73
2023/10/05 00:49:27;;;;;;;10.38;2.65;;;16.50;75.50;;;;;;5031900;28;20057;-73
2023/10/05 00:52:15;;;;;;;7.15;2.55;;;16.50;75.60;;;;;;5040553;28;20535;-73
2023/10/05 00:54:45;;;;;;;7.80;2.15;;;16.50;75.60;;;;;;5028305;28;20017;-73
2023/10/05 00:57:15;;;;;;;8.20;2.13;;;16.50;75.70;;;;;;5028412;28;20104;-73
2023/10/05 01:00:29;;;;;;;6.40;2.30;;;16.50;75.80;;;;;;5043130;28;20026;-73
2023/10/05 01:02:32;;;;;;;5.78;2.50;;;16.50;76.00;;;;;;5038827;28;20032;-73
2023/10/05 01:05:08;;;;;;;10.25;2.35;;;16.40;76.00;;;;;;5033974;28;20026;-73
2023/10/05 01:07:43;;;;;;;7.78;2.58;;;16.40;76.00;;;;;;5034184;28;20135;-73
2023/10/05 01:10:21;;;;;;;6.40;2.17;;;16.40;76.00;;;;;;5033074;28;20040;-73
2023/10/05 01:12:48;;;;;;;6.82;2.20;;;16.40;76.10;;;;;;5043528;28;20048;-73
2023/10/05 01:15:19;;;;;;;9.25;2.88;;;16.40;76.10;;;;;;5030968;28;20052;-73
2023/10/05 01:17:53;;;;;;;6.63;2.33;;;16.40;76.10;;;;;;5030963;28;20025;-73
2023/10/05 01:20:22;;;;;;;7.18;2.38;;;16.40;76.10;;;;;;5030402;28;20451;-73
2023/10/05 01:22:58;;;;;;;8.00;2.55;;;16.40;76.10;;;;;;5038843;28;20033;-73
2023/10/05 01:25:27;;;;;;;8.27;2.83;;;16.40;76.10;;;;;;5030823;28;20045;-73
2023/10/05 01:27:54;;;;;;;7.45;2.20;;;16.40;76.10;;;;;;5033260;28;20025;-73
2023/10/05 01:30:21;;;;;;;10.55;2.47;;;16.40;76.10;;;;;;5035455;28;20468;-73
2023/10/05 01:32:49;;;;;;;7.75;2.53;;;16.40;76.70;;;;;;5031194;28;20098;-73
2023/10/05 01:35:20;;;;;;;8.82;2.47;;;16.40;76.10;;;;;;5032558;28;20056;-74
2023/10/05 01:37:49;;;;;;;8.23;2.35;;;16.40;76.10;;;;;;5031483;28;20038;-73
2023/10/05 01:42:46;;;;;;;11.38;3.28;;;16.40;76.10;;;;;;5031376;28;20029;-73
2023/10/05 01:45:22;;;;;;;7.30;2.38;;;16.40;76.10;;;;;;5029380;28;20025;-73
2023/10/05 01:47:49;;;;;;;6.28;2.38;;;16.40;76.10;;;;;;5030521;28;20041;-73
2023/10/05 01:50:19;;;;;;;6.53;2.17;;;16.40;76.20;;;;;;5033498;28;20030;-73
2023/10/05 01:52:56;;;;;;;8.30;2.55;;;16.30;76.10;;;;;;5037448;28;20362;-73
2023/10/05 01:55:27;;;;;;;9.63;2.63;;;16.30;76.20;;;;;;5042742;28;20112;-73
2023/10/05 01:57:54;;;;;;;8.98;2.95;;;16.30;76.20;;;;;;5032974;28;20044;-73
2023/10/05 02:00:21;;;;;;;8.10;2.63;;;16.30;76.20;;;;;;5040841;28;20074;-73
2023/10/05 02:02:48;;;;;;;8.48;2.70;;;16.30;76.20;;;;;;5032737;28;20417;-74
2023/10/05 02:05:15;;;;;;;7.35;2.03;;;16.30;76.30;;;;;;5031476;28;20029;-73
2023/10/05 02:07:41;;;;;;;8.63;2.60;;;16.30;76.20;;;;;;5031765;28;20029;-73
2023/10/05 02:10:11;;;;;;;10.30;3.22;;;16.20;76.20;;;;;;5030145;28;20377;-73
2023/10/05 02:12:38;;;;;;;10.70;3.17;;;16.20;76.20;;;;;;5042237;28;20447;-73
2023/10/05 02:15:16;;;;;;;6.75;2.58;;;16.20;76.20;;;;;;5041913;28;20025;-73
2023/10/05 02:17:47;;;;;;;9.85;2.90;;;16.20;76.20;;;;;;5040097;28;20461;-73
2023/10/05 02:20:38;;;;;;;7.30;2.70;;;16.20;76.20;;;;;;5031483;28;20037;-73
2023/10/05 02:23:17;;;;;;;8.68;2.88;;;16.20;76.30;;;;;;5031191;28;20029;-73
2023/10/05 02:25:43;;;;;;;8.00;2.88;;;16.10;76.20;;;;;;5032021;28;20088;-73
2023/10/05 02:28:09;;;;;;;7.32;3.03;;;16.10;76.30;;;;;;5031509;28;20063;-73
2023/10/05 02:30:36;;;;;;;14.30;3.00;;;16.10;76.30;;;;;;5028870;28;20125;-73
2023/10/05 02:33:09;;;;;;;7.70;2.90;;;16.10;76.30;;;;;;5029646;28;20458;-73
2023/10/05 02:35:38;;;;;;;7.97;2.67;;;16.10;76.30;;;;;;5032867;28;20072;-73
2023/10/05 02:38:07;;;;;;;10.32;2.72;;;16.10;76.40;;;;;;5031403;28;20078;-73
2023/10/05 02:40:38;;;;;;;8.57;2.85;;;16.10;76.40;;;;;;5031139;28;20090;-73
2023/10/05 02:43:07;;;;;;;7.63;2.88;;;16.10;76.50;;;;;;5028599;28;20029;-73
2023/10/05 02:45:36;;;;;;;7.68;2.83;;;16.10;76.50;;;;;;5044060;28;20021;-73
2023/10/05 02:48:06;;;;;;;8.60;2.60;;;16.10;76.50;;;;;;5012548;28;20038;-73
2023/10/05 02:50:37;;;;;;;10.73;3.37;;;16.00;76.50;;;;;;5030267;28;20029;-73
2023/10/05 02:53:06;;;;;;;9.80;2.65;;;16.00;76.60;;;;;;5030350;28;20025;-74
2023/10/05 02:55:36;;;;;;;6.72;2.97;;;16.00;76.70;;;;;;5029055;28;20026;-74
2023/10/05 02:58:05;;;;;;;6.97;2.60;;;16.00;76.80;;;;;;5043650;28;20024;-74
2023/10/05 03:00:33;;;;;;;10.07;2.47;;;16.00;76.90;;;;;;5024208;28;20036;-74
2023/10/05 03:03:03;;;;;;;9.02;2.80;;;16.00;76.90;;;;;;5028783;28;20022;-74
2023/10/05 03:05:32;;;;;;;11.13;2.83;;;16.00;76.90;;;;;;5038779;28;20018;-73
2023/10/05 03:07:58;;;;;;;9.10;2.95;;;16.00;76.90;;;;;;5030464;28;20292;-74
2023/10/05 03:10:24;;;;;;;10.60;2.70;;;16.00;77.00;;;;;;5030032;28;20033;-74
2023/10/05 03:12:50;;;;;;;9.63;2.85;;;16.00;77.60;;;;;;5030793;28;20347;-73
2023/10/05 03:15:20;;;;;;;11.02;3.30;;;16.00;77.00;;;;;;5044978;28;20025;-74
2023/10/05 03:17:51;;;;;;;9.73;3.05;;;16.00;77.00;;;;;;5028693;28;20032;-73
2023/10/05 03:20:18;;;;;;;9.38;2.85;;;15.90;77.00;;;;;;5028973;28;20052;-73
2023/10/05 03:22:47;;;;;;;7.80;3.05;;;16.00;77.10;;;;;;5034640;28;20104;-73
2023/10/05 03:25:15;;;;;;;8.20;2.97;;;15.90;77.00;;;;;;5027697;28;20049;-73
2023/10/05 03:27:41;;;;;;;8.52;3.05;;;15.90;77.10;;;;;;5029107;28;20259;-73
2023/10/05 03:30:13;;;;;;;8.52;3.10;;;15.90;77.00;;;;;;5044768;28;20105;-73
2023/10/05 03:32:40;;;;;;;8.70;2.85;;;16.00;77.10;;;;;;5030608;28;20105;-73
2023/10/05 03:35:09;;;;;;;10.43;2.92;;;16.00;77.10;;;;;;5006895;28;20030;-73
2023/10/05 03:37:39;;;;;;;8.52;2.60;;;15.90;77.10;;;;;;5022468;28;20052;-73
2023/10/05 03:42:32;;;;;;;11.80;3.35;;;16.00;77.20;;;;;;5030128;28;20025;-73
2023/10/05 03:45:04;;;;;;;9.23;3.33;;;15.90;77.20;;;;;;5030720;28;20041;-73
2023/10/05 03:47:31;;;;;;;10.52;3.45;;;15.90;77.20;;;;;;5043478;28;20056;-73
2023/10/05 03:49:57;;;;;;;10.55;3.60;;;15.90;77.20;;;;;;5028802;28;20431;-73
2023/10/05 03:52:29;;;;;;;9.52;3.28;;;15.90;77.20;;;;;;5026824;28;20034;-74
2023/10/05 03:55:01;;;;;;;9.50;3.20;;;16.00;77.20;;;;;;5047634;28;20358;-73
2023/10/05 03:57:34;;;;;;;11.55;3.10;;;16.00;77.20;;;;;;5042105;28;20057;-68
2023/10/05 04:00:16;;;;;;;8.98;3.20;;;15.90;77.20;;;;;;5030293;28;20025;-68
2023/10/05 04:02:43;;;;;;;;;;;15.90;77.20;;;;;;5026082;28;20053;-67
2023/10/05 04:05:10;;;;;;;8.40;3.42;;;15.90;77.20;;;;;;5023854;28;19916;-68
2023/10/05 04:07:37;;;;;;;10.05;3.40;;;15.90;77.30;;;;;;5027709;28;20030;-68
2023/10/05 04:10:05;;;;;;;8.10;3.10;;;15.90;77.30;;;;;;5031649;28;20041;-68
2023/10/05 04:12:34;;;;;;;9.05;3.13;;;15.90;77.30;;;;;;5029147;28;20049;-68
2023/10/05 04:15:01;;;;;;;9.50;3.28;;;15.90;77.30;;;;;;5029173;28;20030;-68
2023/10/05 04:17:27;;;;;;;9.18;2.97;;;15.90;77.30;;;;;;5035502;28;20017;-68
2023/10/05 04:19:53;;;;;;;8.32;2.97;;;15.90;77.40;;;;;;5039297;28;20025;-68
2023/10/05 04:22:19;;;;;;;8.50;3.28;;;15.90;77.40;;;;;;5033359;28;20106;-68
2023/10/05 04:24:45;;;;;;;8.02;2.83;;;15.90;77.40;;;;;;5033257;28;20120;-68
2023/10/05 04:27:18;;;;;;;10.05;3.47;;;15.90;77.40;;;;;;5032613;28;20517;-67
2023/10/05 04:29:44;;;;;;;8.30;3.25;;;15.90;77.40;;;;;;5046923;28;20429;-68
2023/10/05 04:32:13;;;;;;;12.15;3.60;;;15.90;77.50;;;;;;5032284;28;20057;-68
2023/10/05 04:34:39;;;;;;;8.82;3.38;;;15.90;77.50;;;;;;5031623;28;20029;-68
2023/10/05 04:37:05;;;;;;;8.48;3.35;;;15.80;77.50;;;;;;5031811;28;20029;-68
2023/10/05 04:39:32;;;;;;;9.32;3.25;;;15.90;77.60;;;;;;5030248;28;20083;-68
2023/10/05 04:42:10;;;;;;;11.00;3.63;;;15.90;77.60;;;;;;5031553;28;20029;-67
2023/10/05 04:44:37;;;;;;;10.80;3.55;;;15.90;77.60;;;;;;5029519;28;20033;-67
2023/10/05 04:47:06;;;;;;;10.30;3.78;;;15.80;77.50;;;;;;5033185;28;20072;-67
2023/10/05 04:49:35;;;;;;;8.07;3.25;;;15.80;77.60;;;;;;5029795;28;20037;-68
2023/10/05 04:52:04;;;;;;;8.05;3.30;;;15.80;77.60;;;;;;5032893;28;20465;-67
2023/10/05 04:54:34;;;;;;;9.02;3.10;;;15.80;77.60;;;;;;5020877;28;20636;-68
2023/10/05 04:57:07;;;;;;;7.93;3.20;;;15.80;77.70;;;;;;5028769;28;20020;-67
2023/10/05 05:02:20;;;;;;;12.60;3.92;;;15.70;77.80;;;;;;5029320;28;20076;-67
2023/10/05 05:07:12;;;;;;;13.05;3.80;;;15.70;77.90;;;;;;5034332;28;20117;-66
2023/10/05 05:09:44;;;;;;;9.10;3.65;;;15.70;77.80;;;;;;5027624;28;20029;-67
2023/10/05 05:12:16;;;;;;;;;;;15.70;77.90;;;;;;5056768;28;20024;-67
2023/10/05 05:14:44;;;;;;;8.52;3.47;;;15.70;77.90;;;;;;5053491;28;19963;-67
2023/10/05 05:17:23;;;;;;;10.60;3.40;;;15.60;77.80;;;;;;5032551;28;20030;-67
2023/10/05 05:19:52;;;;;;;9.05;3.55;;;15.60;77.90;;;;;;5024952;28;20044;-67
2023/10/05 05:22:18;;;;;;;8.93;3.75;;;15.60;77.90;;;;;;5018033;28;20029;-67
2023/10/05 05:24:45;;;;;;;10.77;4.03;;;15.60;78.00;;;;;;5035387;28;20057;-67
2023/10/05 05:27:33;;;;;;;8.80;3.75;;;15.60;78.00;;;;;;5056486;28;20039;-67
2023/10/05 05:29:56;;;;;;;10.90;3.95;;;15.60;78.10;;;;;;5040659;28;20030;-67
2023/10/05 05:32:22;;;;;;;8.48;3.60;;;15.60;78.10;;;;;;5052033;28;20033;-67
2023/10/05 05:34:51;;;;;;;11.93;3.95;;;15.50;78.10;;;;;;5055904;28;20037;-67
2023/10/05 05:37:30;;;;;;;9.52;3.30;;;15.50;78.10;;;;;;5043586;28;20036;-67
2023/10/05 05:39:58;;;;;;;9.35;3.60;;;15.50;78.20;;;;;;5032219;28;20105;-67
2023/10/05 05:42:29;;;;;;;10.93;3.72;;;15.50;78.20;;;;;;5035550;28;20025;-67
2023/10/05 05:44:55;;;;;;;9.10;3.92;;;15.50;78.30;;;;;;5032498;28;20041;-67
2023/10/05 05:47:21;;;;;;;9.55;3.97;;;15.50;78.30;;;;;;5039240;28;20029;-66
2023/10/05 05:49:47;;;;;;;10.93;4.22;;;15.50;78.40;;;;;;5030698;28;20060;-68
2023/10/05 05:52:14;;;;;;;12.35;4.25;;;15.50;78.40;;;;;;5035707;28;20021;-69
2023/10/05 05:54:41;;;;;;;11.85;4.30;;;15.50;78.40;;;;;;5042727;28;20051;-68
2023/10/05 05:57:08;;;;;;;11.80;4.20;;;15.50;78.40;;;;;;5031447;28;20033;-69
2023/10/05 05:59:41;;;;;;;14.05;3.70;;;15.60;78.40;;;;;;5030525;28;20519;-68
2023/10/05 06:02:10;;;;;;;9.88;4.03;;;15.60;78.40;;;;;;5028082;28;20045;-69
2023/10/05 06:04:39;;;;;;;13.85;4.22;;;15.60;78.40;;;;;;5030913;28;20036;-68
2023/10/05 06:07:11;;;;;;;9.00;3.67;;;15.60;78.30;;;;;;5030211;28;20152;-69
2023/10/05 06:09:42;;;;;;;11.30;3.72;;;15.60;78.30;;;;;;5030527;28;20030;-68
2023/10/05 06:12:10;;;;;;;;;;;15.60;78.30;;;;;;5033901;28;20037;-68
2023/10/05 06:14:40;;;;;;;11.52;3.60;;;15.60;78.20;;;;;;5048548;28;19920;-68
2023/10/05 06:17:10;;;;;;;9.88;4.53;;;15.60;78.20;;;;;;5045875;28;20498;-68
2023/10/05 06:19:36;;;;;;;9.23;3.95;;;15.60;78.10;;;;;;5042441;28;20026;-68
2023/10/05 06:22:03;;;;;;;10.65;3.97;;;15.70;78.20;;;;;;5054957;28;20071;-68
2023/10/05 06:24:30;;;;;;;11.80;3.90;;;15.70;78.20;;;;;;5042193;28;20136;-68
2023/10/05 06:26:56;;;;;;;10.70;3.63;;;15.70;78.10;;;;;;5052140;28;20028;-69
2023/10/05 06:29:22;;;;;;;10.10;3.70;;;15.70;78.10;;;;;;5045086;28;20364;-69
2023/10/05 06:31:48;;;;;;;11.48;3.83;;;15.80;78.20;;;;;;5054519;28;20040;-69
2023/10/05 06:34:14;;;;;;;9.70;3.70;;;15.70;78.20;;;;;;5034303;28;20451;-68
2023/10/05 06:36:40;;;;;;;12.13;3.90;;;15.80;78.10;;;;;;5030464;28;20017;-68
2023/10/05 06:39:07;;;;;;;14.02;3.67;;;15.80;78.10;;;;;;5030896;28;20091;-68
2023/10/05 06:41:34;;;;;;;10.82;4.53;;;15.80;78.10;;;;;;5027378;28;20474;-68
2023/10/05 06:44:02;;;;;;;10.32;3.42;;;15.80;78.10;;;;;;5035848;28;20106;-68
2023/10/05 06:46:28;;;;;;;9.55;3.30;;;15.80;78.10;;;;;;5054466;28;20454;-68
2023/10/05 06:48:55;;;;;;;10.38;3.85;;;15.80;78.10;;;;;;5042650;28;20025;-68
2023/10/05 06:51:26;;;;;;;8.60;3.70;;;15.80;78.10;;;;;;5055196;28;20025;-68
2023/10/05 06:53:53;;;;;;;10.38;3.90;;;15.90;78.20;;;;;;5051926;28;20104;-68
2023/10/05 06:56:20;;;;;;;7.93;3.08;;;15.80;78.10;;;;;;5043755;28;20027;-68
2023/10/05 06:58:47;;;;;;;12.38;4.03;;;15.90;78.10;;;;;;5040450;28;20111;-68
2023/10/05 07:01:13;;;;;;;7.85;3.42;;;15.90;78.00;;;;;;5055071;28;20323;-68
2023/10/05 07:03:39;;;;;;;10.25;3.55;;;16.00;78.00;;;;;;5055158;28;20087;-68
2023/10/05 07:06:05;;;;;;;10.40;3.85;;;16.00;77.90;;;;;;5037347;28;20449;-68
2023/10/05 07:08:34;;;;;;;11.88;3.53;;;16.00;77.80;;;;;;5042250;28;20466;-68
2023/10/05 07:11:00;;;;;;;13.13;4.10;;;16.00;77.80;;;;;;5041321;28;20040;-68
2023/10/05 07:13:28;;;;;;;10.05;3.42;;;16.00;77.70;;;;;;5053891;28;20025;-68
2023/10/05 07:15:58;;;;;;;11.05;4.07;;;16.00;77.70;;;;;;5039717;28;20125;-68
2023/10/05 07:18:24;;;;;;;9.57;3.65;;;16.10;77.70;;;;;;5029127;28;20115;-68
2023/10/05 07:20:50;;;;;;;10.32;3.70;;;16.10;77.70;;;;;;5044901;28;20051;-68
2023/10/05 07:23:16;;;;;;;10.45;3.78;;;16.10;78.30;;;;;;5031126;28;20037;-68
2023/10/05 07:25:41;;;;;;;9.23;3.38;;;16.10;77.50;;;;;;5029339;28;20064;-68
2023/10/05 07:28:14;;;;;;;9.23;3.58;;;16.20;77.40;;;;;;5031493;28;20075;-68
2023/10/05 07:30:45;;;;;;;9.05;3.50;;;16.30;77.40;;;;;;5029154;28;20037;-68
2023/10/05 07:33:11;;;;;;;13.27;4.28;;;16.30;77.20;;;;;;5028481;28;20031;-68
2023/10/05 07:35:38;;;;;;;8.93;3.30;;;16.40;77.10;;;;;;5041526;28;20032;-68
2023/10/05 07:38:06;;;;;;;9.35;3.42;;;16.40;77.00;;;;;;5027805;28;20535;-68
2023/10/05 07:40:36;;;;;;;10.65;3.85;;;16.40;76.90;;;;;;5027254;28;20108;-68
2023/10/05 07:43:03;;;;;;;9.32;3.85;;;16.50;76.90;;;;;;5017304;28;20451;-68
2023/10/05 07:45:29;;;;;;;13.43;3.88;;;16.50;76.80;;;;;;5037925;28;20023;-68
2023/10/05 07:47:54;;;;;;;10.82;3.58;;;16.50;76.60;;;;;;5028061;28;20033;-68
2023/10/05 07:50:23;;;;;;;10.35;3.85;;;16.60;76.60;;;;;;5043274;28;20025;-68
2023/10/05 07:52:49;;;;;;;10.57;3.60;;;16.70;76.60;;;;;;5047498;28;20033;-68
2023/10/05 07:55:15;;;;;;;9.75;4.20;;;16.70;76.50;;;;;;5031252;28;20021;-68
2023/10/05 07:57:42;;;;;;;10.35;4.05;;;16.80;76.50;;;;;;5050057;28;20021;-68
2023/10/05 08:00:12;;;;;;;11.27;4.05;;;16.80;76.40;;;;;;5033420;28;20601;-68
2023/10/05 08:02:41;;;;;;;11.18;3.85;;;16.80;76.30;;;;;;5032853;28;20041;-67
2023/10/05 08:05:12;;;;;;;9.35;3.90;;;16.90;76.30;;;;;;5031924;28;20510;-67
2023/10/05 08:07:38;;;;;;;9.40;3.65;;;16.90;76.20;;;;;;5054595;28;20057;-67
2023/10/05 08:10:15;;;;;;;8.10;3.35;;;16.90;76.20;;;;;;5045776;28;20124;-68
2023/10/05 08:12:41;;;;;;;11.45;3.85;;;17.00;76.20;;;;;;5058017;28;20031;-67
2023/10/05 08:15:07;;;;;;;12.05;3.95;;;17.00;76.10;;;;;;5050103;28;20033;-68
2023/10/05 08:17:33;;;;;;;9.73;3.42;;;17.00;76.10;;;;;;5037293;28;20063;-68
2023/10/05 08:19:59;;;;;;;10.38;3.65;;;17.10;76.00;;;;;;5040366;28;20108;-68
2023/10/05 08:22:24;;;;;;;10.10;3.17;;;17.20;76.00;;;;;;5043154;28;20354;-68
2023/10/05 08:24:52;;;;;;;11.75;3.67;;;17.20;75.80;;;;;;5052444;28;20120;-68
2023/10/05 08:27:19;;;;;;;10.18;3.55;;;17.30;75.60;;;;;;5015853;28;20037;-68
2023/10/05 08:29:45;;;;;;;10.68;3.47;;;17.40;75.40;;;;;;5051649;28;20335;-68
2023/10/05 08:32:15;;;;;;;9.10;3.92;;;17.50;75.30;;;;;;5057964;28;20029;-69
2023/10/05 08:34:41;;;;;;;11.93;3.85;;;17.60;75.70;;;;;;5052517;28;20083;-68
2023/10/05 08:37:08;;;;;;;11.57;3.38;;;17.70;74.70;;;;;;5043855;28;20026;-68
2023/10/05 08:39:37;;;;;;;12.30;3.85;;;17.80;74.40;;;;;;5037259;28;20033;-68
2023/10/05 08:42:06;;;;;;;9.02;3.67;;;18.00;74.30;;;;;;5036630;28;20032;-68
2023/10/05 08:44:41;;;;;;;8.85;3.28;;;18.10;74.00;;;;;;5036426;28;20033;-68
2023/10/05 08:47:12;;;;;;;10.93;3.92;;;18.20;73.70;;;;;;5036978;28;20037;-68
2023/10/05 08:49:39;;;;;;;8.75;3.30;;;18.30;73.50;;;;;;5036111;28;20048;-68
2023/10/05 08:52:13;;;;;;;10.38;3.50;;;18.30;73.40;;;;;;5051946;28;20024;-68
2023/10/05 08:54:45;;;;;;;10.27;3.33;;;18.40;73.30;;;;;;5056407;28;20020;-68
2023/10/05 08:57:12;;;;;;;8.93;3.25;;;18.40;73.10;;;;;;5057640;28;20048;-68
2023/10/05 08:59:39;;;;;;;11.57;3.88;;;18.50;73.00;;;;;;5048627;28;20033;-68
2023/10/05 09:02:08;;;;;;;9.50;3.45;;;18.50;72.90;;;;;;5056755;28;20119;-68
2023/10/05 09:04:47;;;;;;;7.57;3.00;;;18.50;72.90;;;;;;5056731;28;20094;-68
2023/10/05 09:07:55;;;;;;;12.57;3.88;;;18.60;72.80;;;;;;5056442;28;20098;-67
2023/10/05 09:10:26;;;;;;;7.75;2.75;;;18.70;72.60;;;;;;5050060;28;20051;-67
2023/10/05 09:13:07;;;;;;;9.20;4.05;;;18.70;72.60;;;;;;5055929;28;20021;-68
2023/10/05 09:15:37;;;;;;;9.38;3.22;;;18.70;72.40;;;;;;5057484;28;20342;-68
2023/10/05 09:20:38;;;;;;;10.27;3.40;;;18.60;72.50;;;;;;5038964;28;20072;-66
2023/10/05 09:23:06;;;;;;;10.10;2.83;;;18.60;72.60;;;;;;5051923;28;20033;-66
2023/10/05 09:25:44;;;;;;;9.43;3.05;;;18.60;72.70;;;;;;5056740;28;20064;-66
2023/10/05 09:28:16;;;;;;;10.60;3.53;;;18.60;72.70;;;;;;5057083;28;20021;-66
2023/10/05 09:30:56;;;;;;;7.97;3.10;;;18.50;72.70;;;;;;5019758;28;20360;-66
2023/10/05 09:33:33;;;;;;;9.35;2.72;;;18.50;72.70;;;;;;5047812;28;20083;-66
2023/10/05 09:36:22;;;;;;;7.32;3.22;;;18.40;72.80;;;;;;5056881;28;20040;-66
2023/10/05 09:38:51;;;;;;;10.48;3.78;;;18.40;72.80;;;;;;5052318;28;20061;-66
2023/10/05 09:41:18;;;;;;;10.63;3.33;;;18.30;72.90;;;;;;5047216;28;20353;-66
2023/10/05 09:43:44;;;;;;;9.60;3.00;;;18.30;73.00;;;;;;5057016;28;20116;-66
2023/10/05 09:46:11;;;;;;;10.65;2.90;;;18.20;73.10;;;;;;5056060;28;20040;-66
2023/10/05 09:48:38;;;;;;;9.52;3.05;;;18.20;73.20;;;;;;5054685;28;20039;-66
2023/10/05 09:51:09;;;;;;;10.43;3.35;;;18.20;73.10;;;;;;5055416;28;20068;-66
2023/10/05 09:53:41;;;;;;;13.07;2.95;;;18.20;73.10;;;;;;5056608;28;20105;-66
2023/10/05 09:56:11;;;;;;;9.40;2.88;;;18.20;73.10;;;;;;5056644;28;20024;-66
2023/10/05 09:58:41;;;;;;;9.35;3.05;;;18.20;73.10;;;;;;5052500;28;20033;-66
2023/10/05 10:01:21;;;;;;;9.48;2.97;;;18.20;73.10;;;;;;5055272;28;20108;-66
2023/10/05 10:03:51;;;;;;;8.63;3.07;;;18.20;73.20;;;;;;5055426;28;20033;-66
2023/10/05 10:06:20;;;;;;;9.73;3.08;;;18.20;73.20;;;;;;5055449;28;20456;-66
2023/10/05 10:08:53;;;;;;;7.97;2.75;;;18.20;73.30;;;;;;5051649;28;20029;-66
2023/10/05 10:11:24;;;;;;;9.00;3.03;;;18.20;73.40;;;;;;5071695;28;20045;-66
2023/10/05 10:14:05;;;;;;;10.05;3.17;;;18.30;73.30;;;;;;5055894;28;20178;-66
2023/10/05 10:16:33;;;;;;;11.23;3.47;;;18.30;73.40;;;;;;5026741;28;20151;-66
2023/10/05 10:19:09;;;;;;;9.30;2.83;;;18.30;73.40;;;;;;5040782;28;20040;-66
2023/10/05 10:21:42;;;;;;;8.95;3.05;;;18.30;73.40;;;;;;5045768;28;20029;-67
2023/10/05 10:24:14;;;;;;;8.88;2.55;;;18.30;73.40;;;;;;5054778;28;20037;-66
2023/10/05 10:26:44;;;;;;;10.50;2.92;;;18.30;73.40;;;;;;5055024;28;20335;-67
2023/10/05 10:29:11;;;;;;;10.23;2.73;;;18.30;73.40;;;;;;5050516;28;20061;-67
2023/10/05 10:31:47;;;;;;;7.85;2.85;;;18.40;73.40;;;;;;5051250;28;20458;-67
2023/10/05 10:34:19;;;;;;;8.13;2.97;;;18.40;73.40;;;;;;5054647;28;20576;-66
2023/10/05 10:36:46;;;;;;;9.18;2.65;;;18.50;73.20;;;;;;5055563;28;20037;-67
2023/10/05 10:39:27;;;;;;;10.25;3.40;;;18.50;73.40;;;;;;5049785;28;20025;-67
2023/10/05 10:42:30;;;;;;;8.85;3.22;;;18.50;73.30;;;;;;5050463;28;20076;-67
2023/10/05 10:47:18;;;;;;;9.13;3.20;;;18.60;73.00;;;;;;5046940;28;20044;-66
2023/10/05 10:50:15;;;;;;;12.25;3.20;;;18.60;72.90;;;;;;5034465;28;20048;-66
2023/10/05 10:52:43;;;;;;;8.63;3.08;;;18.60;72.80;;;;;;5036392;28;20028;-67
2023/10/05 10:55:14;;;;;;;12.65;3.15;;;18.60;72.80;;;;;;5036576;28;20036;-67
2023/10/05 10:57:47;;;;;;;11.63;3.22;;;18.60;72.70;;;;;;5039519;28;20377;-66
2023/10/05 11:03:12;;;;;;;8.73;3.00;;;18.70;72.70;;;;;;5027677;28;20040;-67
2023/10/05 11:05:47;;;;;;;8.70;2.20;;;18.70;72.60;;;;;;5030602;28;20037;-66
2023/10/05 11:08:20;;;;;;;7.90;2.60;;;18.80;73.20;;;;;;5029493;28;20446;-66
2023/10/05 11:11:09;;;;;;;10.20;3.28;;;18.90;72.50;;;;;;5029495;28;20346;-67
2023/10/05 11:13:49;;;;;;;10.02;3.10;;;19.00;72.30;;;;;;5028670;28;20510;-67
2023/10/05 11:16:15;;;;;;;9.15;2.72;;;19.10;71.90;;;;;;5030218;28;20049;-67
2023/10/05 11:19:00;;;;;;;8.10;3.35;;;19.20;71.60;;;;;;5030816;28;20021;-66
2023/10/05 11:21:26;;;;;;;8.70;3.05;;;19.30;71.60;;;;;;5029292;28;20036;-67
2023/10/05 11:23:56;;;;;;;8.88;2.75;;;19.30;71.50;;;;;;5035859;28;20033;-67
2023/10/05 11:26:33;;;;;;;8.98;2.78;;;19.20;71.50;;;;;;5048069;28;20045;-67
2023/10/05 11:29:07;;;;;;;8.43;2.40;;;19.20;71.60;;;;;;5030611;28;20033;-67
2023/10/05 11:31:39;;;;;;;6.88;2.47;;;19.20;71.50;;;;;;5034906;28;20162;-67
2023/10/05 11:34:09;;;;;;;10.77;3.08;;;19.20;71.60;;;;;;5029282;28;20021;-68
2023/10/05 11:36:39;;;;;;;13.32;3.42;;;19.20;72.30;;;;;;5028406;28;20030;-67
2023/10/05 11:39:26;;;;;;;10.70;3.13;;;19.20;71.60;;;;;;5027507;28;20467;-67
2023/10/05 11:41:56;;;;;;;8.57;2.70;;;19.10;71.60;;;;;;5027794;28;20025;-67
2023/10/05 11:44:27;;;;;;;11.98;3.30;;;19.10;71.70;;;;;;5028048;28;20041;-66
2023/10/05 11:46:57;;;;;;;11.65;2.90;;;19.10;71.80;;;;;;5045106;28;20040;-66
2023/10/05 11:49:33;;;;;;;8.85;2.80;;;19.10;71.80;;;;;;5033079;28;20080;-67
2023/10/05 11:52:03;;;;;;;10.88;3.25;;;19.30;71.70;;;;;;5026063;28;20056;-67
2023/10/05 11:54:32;;;;;;;8.57;3.22;;;19.50;71.40;;;;;;5042369;28;20034;-66
2023/10/05 11:56:59;;;;;;;10.10;3.00;;;19.60;70.90;;;;;;5029012;28;20434;-66
2023/10/05 11:59:29;;;;;;;9.50;3.08;;;19.70;70.60;;;;;;5030071;28;20454;-66
2023/10/05 12:01:55;;;;;;;11.05;3.22;;;19.70;70.30;;;;;;5036110;28;20029;-67
2023/10/05 12:04:23;;;;;;;9.25;2.80;;;19.60;70.50;;;;;;5030136;28;20034;-67
2023/10/05 12:06:59;;;;;;;9.82;2.92;;;19.60;70.60;;;;;;5025982;28;20045;-67
2023/10/05 12:09:32;;;;;;;8.70;2.88;;;19.50;70.70;;;;;;5028386;28;20029;-67
2023/10/05 12:12:03;;;;;;;9.32;2.53;;;19.50;70.70;;;;;;5027285;28;20034;-67
2023/10/05 12:14:29;;;;;;;9.57;2.90;;;19.40;70.70;;;;;;5028945;28;20086;-67
2023/10/05 12:16:56;;;;;;;7.57;2.33;;;19.30;70.80;;;;;;5029947;28;20107;-67
2023/10/05 12:19:30;;;;;;;7.53;2.60;;;19.30;71.00;;;;;;5033302;28;20029;-68
2023/10/05 12:21:59;;;;;;;10.23;3.35;;;19.30;71.10;;;;;;5012773;28;20037;-68
2023/10/05 12:24:26;;;;;;;9.70;3.08;;;19.30;71.30;;;;;;5033124;28;20056;-67
2023/10/05 12:26:55;;;;;;;8.20;2.72;;;19.30;71.30;;;;;;5034336;28;20052;-68
2023/10/05 12:29:21;;;;;;;7.82;2.75;;;19.20;71.20;;;;;;5033773;28;20137;-67
2023/10/05 12:31:49;;;;;;;10.07;2.88;;;19.20;71.30;;;;;;5030091;28;20529;-67
2023/10/05 12:34:15;;;;;;;9.02;3.10;;;19.10;71.30;;;;;;5028506;28;20076;-67
2023/10/05 12:36:49;;;;;;;8.82;3.30;;;19.10;71.20;;;;;;5028657;28;20117;-67
2023/10/05 12:39:29;;;;;;;8.95;3.05;;;19.10;71.30;;;;;;5028736;28;20037;-67
2023/10/05 12:41:57;;;;;;;7.30;2.88;;;19.10;71.30;;;;;;5011681;28;20364;-67
2023/10/05 12:44:23;;;;;;;10.43;2.55;;;19.10;71.30;;;;;;5042919;28;20049;-67
2023/10/05 12:46:48;;;;;;;9.43;2.90;;;19.10;71.30;;;;;;5030659;28;20041;-67
2023/10/05 12:49:15;;;;;;;6.80;2.70;;;19.10;71.30;;;;;;5029919;28;20026;-67
2023/10/05 12:51:44;;;;;;;9.38;2.78;;;19.10;71.40;;;;;;5045247;28;20017;-67
2023/10/05 12:54:19;;;;;;;7.57;2.75;;;19.10;71.40;;;;;;5033525;28;20040;-67
2023/10/05 12:56:51;;;;;;;8.98;2.88;;;19.00;71.50;;;;;;5029407;28;20474;-68
2023/10/05 12:59:18;;;;;;;8.18;2.97;;;19.00;71.70;;;;;;5032906;28;20044;-67
2023/10/05 13:01:46;;;;;;;8.77;3.28;;;18.90;71.70;;;;;;5045903;28;20451;-67
2023/10/05 13:04:13;;;;;;;9.10;2.63;;;18.90;71.80;;;;;;5033883;28;20029;-67
2023/10/05 13:06:40;;;;;;;5.78;2.38;;;18.90;71.70;;;;;;5030763;28;20029;-67
2023/10/05 13:09:18;;;;;;;8.93;2.83;;;18.90;71.50;;;;;;5013516;28;20033;-67
2023/10/05 13:11:45;;;;;;;8.25;2.45;;;18.90;71.50;;;;;;5029311;28;20183;-67
2023/10/05 13:14:15;;;;;;;11.02;2.90;;;19.00;71.40;;;;;;5031197;28;20029;-68
2023/10/05 13:16:42;;;;;;;7.32;2.58;;;19.00;71.40;;;;;;5030071;28;20071;-68
2023/10/05 13:19:12;;;;;;;8.27;2.60;;;19.00;71.30;;;;;;5031711;28;20343;-68
2023/10/05 13:21:44;;;;;;;8.23;2.63;;;19.10;71.30;;;;;;5046586;28;20067;-67